createdAt,value
2023-02-08T00:02:52.743Z,35.240802675585286
2023-02-08T00:10:12.833Z,34.458193979933114
2023-02-08T00:22:47.618Z,33.046822742474916
2023-02-08T00:34:17.554Z,32.21070234113712
2023-02-08T00:40:41.503Z,32.391304347826086
2023-02-08T00:47:06.220Z,31.712374581939798
2023-02-08T00:53:29.092Z,32.04347826086956
2023-02-08T00:59:52.236Z,32.02675585284281
2023-02-08T01:06:15.549Z,32.468227424749166
2023-02-08T01:12:39.009Z,32.44481605351171
2023-02-08T01:19:02.623Z,32.35451505016722
2023-02-08T01:25:26.502Z,32.541806020066886
2023-02-08T01:37:54.663Z,32.23745819397993
2023-02-08T01:44:18.155Z,32.9933110367893
2023-02-08T02:00:41.040Z,33.20401337792642
2023-02-08T02:07:02.325Z,33.23411371237458
2023-02-08T02:13:25.135Z,33.67224080267559
2023-02-08T02:22:52.526Z,33.5685618729097
2023-02-08T02:32:47.526Z,33.80602006688963
2023-02-08T02:46:27.126Z,34.31438127090301
2023-02-08T02:52:50.485Z,33.642140468227424
2023-02-08T02:59:14.262Z,34.57859531772575
2023-02-08T03:08:59.514Z,34.197324414715716
2023-02-08T03:15:23.723Z,34.953177257525084
2023-02-08T03:21:45.342Z,34.642140468227424
2023-02-08T03:28:06.273Z,35.95652173913044
2023-02-08T03:34:58.603Z,36.123745819397996
2023-02-08T03:41:20.987Z,36.92307692307692
2023-02-08T03:47:44.271Z,37.91304347826087
2023-02-08T03:54:06.937Z,38.25083612040134
2023-02-08T04:00:30.322Z,37.92307692307692
2023-02-08T04:06:52.016Z,38.23076923076923
2023-02-08T04:13:15.858Z,38.74247491638796
2023-02-08T04:19:37.535Z,37.74581939799331
2023-02-08T04:26:00.645Z,38.39464882943144
2023-02-08T04:32:24.865Z,38.919732441471574
2023-02-08T04:38:48.891Z,39.4314381270903
2023-02-08T04:45:10.394Z,39.785953177257525
2023-02-08T04:52:11.664Z,40.080267558528426
2023-02-08T04:59:04.207Z,39.74581939799331
2023-02-08T05:16:22.421Z,41.78929765886288
2023-02-08T05:22:45.828Z,42.5685618729097
2023-02-08T05:41:07.074Z,43.11705685618729
2023-02-08T05:47:29.158Z,44.27090301003344
2023-02-08T05:53:50.527Z,43.81605351170568
2023-02-08T06:04:01.713Z,43.31772575250836
2023-02-08T06:10:25.792Z,43.52173913043478
2023-02-08T06:16:49.547Z,43.448160535117054
2023-02-08T06:23:13.450Z,43.331103678929765
2023-02-08T06:29:39.476Z,42.92642140468227
2023-02-08T06:36:03.247Z,44.87959866220736
2023-02-08T06:48:48.840Z,45.95986622073578
2023-02-08T06:55:12.236Z,45.43478260869565
2023-02-08T07:01:34.193Z,47.01003344481605
2023-02-08T07:13:46.196Z,46.21739130434783
2023-02-08T07:20:10.071Z,46.99665551839465
2023-02-08T07:32:34.836Z,48.608695652173914
2023-02-08T07:51:42.632Z,48.47826086956522
2023-02-08T07:58:07.271Z,47.07692307692308
2023-02-08T08:07:04.151Z,47.929765886287626
2023-02-08T08:13:28.812Z,47.81605351170568
2023-02-08T08:19:53.113Z,47.67224080267559
2023-02-08T08:29:31.140Z,46.78929765886288
2023-02-08T08:40:33.912Z,47.752508361204015
2023-02-08T08:49:59.170Z,48.47157190635451
2023-02-08T08:56:22.728Z,47.812709030100336
2023-02-08T09:10:23.927Z,47.876254180602004
2023-02-08T09:19:51.979Z,43.979933110367895
2023-02-08T09:26:17.174Z,43.30769230769231
2023-02-08T09:32:42.813Z,42.69899665551839
2023-02-08T09:40:57.783Z,41.852842809364546
2023-02-08T09:48:19.881Z,41.792642140468224
2023-02-08T09:56:07.249Z,40.49498327759197
2023-02-08T10:06:14.195Z,41.61204013377927
2023-02-08T10:12:38.629Z,40.12709030100334
2023-02-08T10:22:19.273Z,40.09030100334448
2023-02-08T10:28:56.005Z,39.792642140468224
2023-02-08T10:39:35.653Z,39.130434782608695
2023-02-08T10:45:59.722Z,38.42809364548495
2023-02-08T10:52:24.211Z,38.8561872909699
2023-02-08T10:58:49.491Z,38.69230769230769
2023-02-08T11:05:13.725Z,37.508361204013376
2023-02-08T11:12:03.895Z,37.1505016722408
2023-02-08T11:18:53.844Z,36.94648829431438
2023-02-08T11:25:18.776Z,36.35451505016722
2023-02-08T11:31:44.162Z,35.82608695652174
2023-02-08T11:38:44.975Z,36.51839464882943
2023-02-08T11:50:50.144Z,35.03678929765886
2023-02-08T12:01:37.828Z,34.23745819397993
2023-02-08T12:14:52.078Z,33.80602006688963
2023-02-08T12:21:16.444Z,32.668896321070235
2023-02-08T12:27:41.843Z,32.88294314381271
2023-02-08T12:40:19.524Z,31.401337792642142
2023-02-08T12:46:45.233Z,30.963210702341136
2023-02-08T12:53:10.090Z,31.434782608695652
2023-02-08T13:10:45.633Z,28.05685618729097
2023-02-08T13:17:10.237Z,27.076923076923077
2023-02-08T13:24:50.429Z,26.7190635451505
2023-02-08T13:36:24.020Z,28.13377926421405
2023-02-08T13:49:03.469Z,27.02675585284281
2023-02-08T13:55:28.919Z,26.351170568561873
2023-02-08T14:09:41.260Z,24.705685618729095
2023-02-08T14:16:06.622Z,25.076923076923077
2023-02-08T14:33:50.534Z,25.551839464882942
2023-02-08T14:43:36.562Z,25.08361204013378
2023-02-08T14:50:01.134Z,26.02675585284281
2023-02-08T14:56:25.838Z,25.317725752508363
2023-02-08T15:03:51.712Z,25.632107023411372
2023-02-08T15:10:16.702Z,26.20066889632107
2023-02-08T15:16:42.209Z,28.953177257525084
2023-02-08T15:23:06.897Z,27.555183946488295
2023-02-08T15:29:44.002Z,29.16722408026756
2023-02-08T15:50:02.500Z,30.963210702341136
2023-02-08T16:01:58.826Z,35.468227424749166
2023-02-08T16:11:55.085Z,30.662207357859533
2023-02-08T16:18:19.611Z,29.779264214046822
2023-02-08T16:26:56.992Z,29.63545150501672
2023-02-08T16:33:19.953Z,28.722408026755854
2023-02-08T16:39:43.963Z,27.65551839464883
2023-02-08T16:54:01.729Z,28.240802675585286
2023-02-08T17:00:23.338Z,28.301003344481604
2023-02-08T17:07:12.113Z,28.68896321070234
2023-02-08T17:13:34.554Z,25.150501672240804
2023-02-08T17:19:56.301Z,23.160535117056856
2023-02-08T17:26:17.375Z,22.869565217391305
2023-02-08T17:36:08.313Z,21.160535117056856
2023-02-08T17:45:54.461Z,19.812709030100333
2023-02-08T17:52:15.488Z,19.29096989966555
2023-02-08T17:58:39.323Z,19.34448160535117
2023-02-08T18:05:03.023Z,17.892976588628763
2023-02-08T18:11:25.789Z,18.237458193979933
2023-02-08T18:22:34.634Z,17.51839464882943
2023-02-08T18:28:55.965Z,17.983277591973245
2023-02-08T18:35:20.441Z,19.80267558528428
2023-02-08T18:44:23.822Z,19.785953177257525
2023-02-08T18:50:48.052Z,21.073578595317727
2023-02-08T18:57:12.055Z,20.85284280936455
2023-02-08T19:09:03.650Z,22.36454849498328
2023-02-08T19:15:29.178Z,23.39464882943144
2023-02-08T19:27:51.473Z,26.107023411371237
2023-02-08T19:34:23.091Z,27.006688963210703
2023-02-08T19:44:26.104Z,28.277591973244146
2023-02-08T19:55:12.974Z,28.49163879598662
2023-02-08T20:01:37.211Z,29.71571906354515
2023-02-08T20:08:01.849Z,31.187290969899667
2023-02-08T20:14:29.386Z,31.361204013377925
2023-02-08T20:23:46.505Z,32.525083612040135
2023-02-08T20:53:55.242Z,36.779264214046826
2023-02-08T21:00:19.798Z,37.73913043478261
2023-02-08T21:11:32.688Z,40.214046822742475
2023-02-08T21:27:16.491Z,41.15384615384615
2023-02-08T21:33:40.173Z,40.8561872909699
2023-02-08T21:40:03.252Z,42.35451505016722
2023-02-08T21:49:30.169Z,42.82608695652174
2023-02-08T22:04:51.181Z,43.59866220735786
2023-02-08T22:15:20.221Z,44.02341137123746
2023-02-08T22:21:43.794Z,44.76588628762542
2023-02-08T22:28:06.761Z,44.725752508361204
2023-02-08T22:38:35.144Z,46.779264214046826
2023-02-08T22:44:57.949Z,46.836120401337794
2023-02-08T22:57:52.033Z,48.013377926421406
2023-02-08T23:04:13.256Z,47.14046822742475
2023-02-08T23:15:44.507Z,48.735785953177256
2023-02-08T23:38:34.514Z,47.979933110367895
2023-02-08T23:46:06.722Z,48.89966555183946
